Time;durP1;ratioP1;P1;durP2;ratioP2;P2;SDS_P1;SDS_P2;PMS_P1;PMS_P2;Temp;Humidity;BMP_temperature;BMP_pressure;BME280_temperature;BME280_humidity;BME280_pressure;Samples;Min_cycle;Max_cycle;Signal;HPM_P1;HPM_P2
2023/06/29 00:02:29;;;;;;;5.07;4.67;;;;;;;;;;5090651;28;20465;-77
2023/06/29 00:04:57;;;;;;;4.83;4.53;;;;;;;;;;5091158;28;20417;-77
2023/06/29 00:07:25;;;;;;;4.57;4.27;;;;;;;;;;5082357;28;20448;-77
2023/06/29 00:09:54;;;;;;;4.63;4.30;;;;;;;;;;5090239;28;20492;-78
2023/06/29 00:12:24;;;;;;;4.83;4.53;;;;;;;;;;5090128;28;20477;-77
2023/06/29 00:14:52;;;;;;;5.20;4.67;;;;;;;;;;5089896;28;20445;-78
2023/06/29 00:17:20;;;;;;;5.97;5.07;;;;;;;;;;5088849;28;20512;-77
2023/06/29 00:19:48;;;;;;;6.10;4.90;;;;;;;;;;5086593;28;20532;-77
2023/06/29 00:22:16;;;;;;;4.60;4.30;;;;;;;;;;5084490;28;20437;-77
2023/06/29 00:24:44;;;;;;;5.87;4.63;;;;;;;;;;5084326;28;20938;-77
2023/06/29 00:27:12;;;;;;;5.43;4.83;;;;;;;;;;5077868;28;20455;-78
2023/06/29 00:29:44;;;;;;;5.17;4.67;;;;;;;;;;5075976;28;20456;-77
2023/06/29 00:32:12;;;;;;;5.27;4.80;;;;;;;;;;5076123;28;20464;-78
2023/06/29 00:34:40;;;;;;;5.80;5.30;;;;;;;;;;5076263;28;20433;-77
2023/06/29 00:37:07;;;;;;;7.67;4.87;;;;;;;;;;5075608;28;20449;-77
2023/06/29 00:39:36;;;;;;;6.97;5.07;;;;;;;;;;5077342;28;20563;-76
2023/06/29 00:42:04;;;;;;;5.13;4.83;;;;;;;;;;5077154;28;20457;-77
2023/06/29 00:44:32;;;;;;;4.73;4.43;;;;;;;;;;5077523;28;20506;-77
2023/06/29 00:47:02;;;;;;;6.53;5.23;;;;;;;;;;5077177;28;20467;-78
2023/06/29 00:49:41;;;;;;;5.87;4.83;;;;;;;;;;5077775;28;20429;-77
2023/06/29 00:52:16;;;;;;;6.83;5.13;;;;;;;;;;5073172;28;20448;-77
2023/06/29 00:54:48;;;;;;;5.40;5.00;;;;;;;;;;5076864;28;20797;-77
2023/06/29 00:57:29;;;;;;;5.23;4.77;;;;;;;;;;5076969;28;20456;-76
2023/06/29 01:02:41;;;;;;;5.77;5.20;;;;;;;;;;5073087;28;20444;-77
2023/06/29 01:05:16;;;;;;;5.17;4.87;;;;;;;;;;5081905;28;20489;-77
2023/06/29 01:07:52;;;;;;;5.57;5.07;;;;;;;;;;5081771;28;20529;-77
2023/06/29 01:13:30;;;;;;;6.57;5.97;;;;;;;;;;5080537;28;21249;-76
2023/06/29 01:16:17;;;;;;;5.93;5.50;;;;;;;;;;5082823;28;20460;-77
2023/06/29 01:19:09;;;;;;;5.67;5.17;;;;;;;;;;5084633;28;20449;-77
2023/06/29 01:22:18;;;;;;;;;;;;;;;;;;;;;
2023/06/29 01:36:47;;;;;;;6.90;6.20;;;;;;;;;;5080584;28;20427;-77
2023/06/29 01:39:22;;;;;;;5.70;5.30;;;;;;;;;;5081972;28;20786;-77
2023/06/29 01:41:52;;;;;;;5.97;5.23;;;;;;;;;;5079984;28;20876;-77
2023/06/29 01:44:23;;;;;;;5.70;5.10;;;;;;;;;;5078784;28;20536;-77
2023/06/29 01:47:06;;;;;;;6.47;5.97;;;;;;;;;;5081397;28;20855;-77
2023/06/29 01:49:37;;;;;;;6.17;5.57;;;;;;;;;;5080710;28;20515;-77
2023/06/29 01:52:08;;;;;;;6.73;6.13;;;;;;;;;;5079790;28;20406;-78
2023/06/29 01:54:46;;;;;;;5.77;5.27;;;;;;;;;;5076901;28;20452;-77
2023/06/29 01:57:25;;;;;;;6.10;5.50;;;;;;;;;;5078920;28;20455;-77
2023/06/29 01:59:55;;;;;;;6.40;5.80;;;;;;;;;;5090956;28;20561;-77
2023/06/29 02:02:27;;;;;;;6.97;6.27;;;;;;;;;;5083096;28;20472;-77
2023/06/29 02:05:00;;;;;;;7.00;6.40;;;;;;;;;;5081198;28;20447;-76
2023/06/29 02:07:31;;;;;;;6.67;6.17;;;;;;;;;;5079664;28;20456;-77
2023/06/29 02:09:59;;;;;;;7.13;6.53;;;;;;;;;;5080095;28;20439;-77
2023/06/29 02:12:30;;;;;;;7.30;6.53;;;;;;;;;;5080276;28;20457;-79
2023/06/29 02:14:58;;;;;;;7.17;6.50;;;;;;;;;;5081021;28;20483;-77
2023/06/29 02:17:27;;;;;;;6.97;6.40;;;;;;;;;;5081065;28;20485;-77
2023/06/29 02:20:10;;;;;;;7.27;6.60;;;;;;;;;;5079770;28;20566;-77
2023/06/29 02:23:02;;;;;;;7.60;6.93;;;;;;;;;;5058652;28;20469;-76
2023/06/29 02:25:48;;;;;;;7.60;6.17;;;;;;;;;;5053196;28;20435;-77
2023/06/29 02:28:25;;;;;;;7.30;6.70;;;;;;;;;;5059827;28;20486;-78
2023/06/29 02:31:01;;;;;;;7.17;6.47;;;;;;;;;;5061559;28;20450;-76
2023/06/29 02:33:32;;;;;;;7.80;7.00;;;;;;;;;;5060792;28;20529;-77
2023/06/29 02:36:09;;;;;;;7.83;7.13;;;;;;;;;;5061467;28;20531;-77
2023/06/29 02:41:52;;;;;;;9.90;6.63;;;;;;;;;;5056385;28;20837;-77
2023/06/29 02:44:38;;;;;;;7.93;7.23;;;;;;;;;;5056677;28;20918;-77
2023/06/29 02:56:35;;;;;;;8.73;7.77;;;;;;;;;;5053707;28;20941;-78
2023/06/29 02:59:06;;;;;;;7.20;6.60;;;;;;;;;;5057226;28;20468;-77
2023/06/29 03:01:37;;;;;;;8.10;7.33;;;;;;;;;;5057073;28;20507;-76
2023/06/29 03:04:14;;;;;;;8.53;7.67;;;;;;;;;;5057369;28;20476;-76
2023/06/29 03:06:45;;;;;;;8.57;7.77;;;;;;;;;;5058959;28;20453;-78
2023/06/29 03:09:14;;;;;;;8.47;7.60;;;;;;;;;;5058286;28;20547;-77
2023/06/29 03:11:43;;;;;;;8.30;7.50;;;;;;;;;;5059975;28;20453;-77
2023/06/29 03:14:14;;;;;;;7.73;7.03;;;;;;;;;;5059781;28;20482;-77
2023/06/29 03:16:49;;;;;;;8.40;7.67;;;;;;;;;;5067306;28;20453;-76
2023/06/29 03:19:16;;;;;;;7.70;6.97;;;;;;;;;;5081161;28;20461;-76
2023/06/29 03:21:45;;;;;;;14.97;8.47;;;;;;;;;;5078534;28;20471;-76
2023/06/29 03:24:22;;;;;;;11.03;7.50;;;;;;;;;;5076689;28;20511;-77
2023/06/29 03:27:23;;;;;;;7.47;6.97;;;;;;;;;;5076704;28;20534;-77
2023/06/29 03:30:03;;;;;;;8.07;7.33;;;;;;;;;;5044804;28;20461;-77
2023/06/29 03:32:53;;;;;;;8.37;7.73;;;;;;;;;;5078034;28;21019;-77
2023/06/29 03:35:53;;;;;;;;;;;;;;;;;;;;;
2023/06/29 03:38:42;;;;;;;7.70;7.00;;;;;;;;;;5077944;28;21014;-76
2023/06/29 03:41:13;;;;;;;7.93;7.20;;;;;;;;;;5077291;28;20473;-77
2023/06/29 03:43:44;;;;;;;8.53;7.83;;;;;;;;;;5075955;28;20480;-78
2023/06/29 03:46:14;;;;;;;8.97;8.07;;;;;;;;;;5076959;28;20498;-76
2023/06/29 03:48:42;;;;;;;8.40;7.70;;;;;;;;;;5078747;28;20454;-77
2023/06/29 03:51:10;;;;;;;7.90;7.27;;;;;;;;;;5076961;28;20442;-77
2023/06/29 03:53:40;;;;;;;7.77;7.00;;;;;;;;;;5075043;28;20477;-77
2023/06/29 03:56:10;;;;;;;9.87;7.20;;;;;;;;;;5075769;28;20486;-77
2023/06/29 03:58:41;;;;;;;9.10;8.20;;;;;;;;;;5075591;28;20480;-77
2023/06/29 04:01:13;;;;;;;9.03;7.63;;;;;;;;;;5075353;28;20577;-77
2023/06/29 04:03:49;;;;;;;9.13;8.00;;;;;;;;;;5074550;28;20549;-78
2023/06/29 04:06:20;;;;;;;8.73;7.83;;;;;;;;;;5075038;28;20446;-76
2023/06/29 04:08:48;;;;;;;8.53;7.80;;;;;;;;;;5075261;28;20466;-76
2023/06/29 04:11:30;;;;;;;7.93;7.13;;;;;;;;;;5076429;28;20534;-76
2023/06/29 04:13:57;;;;;;;7.43;6.93;;;;;;;;;;5074802;28;20486;-78
2023/06/29 04:16:33;;;;;;;8.40;7.70;;;;;;;;;;5075152;28;20474;-76
2023/06/29 04:19:23;;;;;;;8.07;7.37;;;;;;;;;;5075623;28;20822;-76
2023/06/29 04:22:04;;;;;;;8.33;7.10;;;;;;;;;;5074829;28;20475;-77
2023/06/29 04:24:37;;;;;;;8.13;7.40;;;;;;;;;;5074633;28;20460;-76
2023/06/29 04:27:15;;;;;;;8.13;7.33;;;;;;;;;;5077569;28;20451;-77
2023/06/29 04:30:17;;;;;;;8.57;7.40;;;;;;;;;;5077214;28;20456;-77
2023/06/29 04:33:03;;;;;;;;;;;;;;;;;;;;;
2023/06/29 04:35:35;;;;;;;7.50;6.87;;;;;;;;;;5074960;28;20430;-77
2023/06/29 04:38:07;;;;;;;9.30;6.73;;;;;;;;;;5074246;28;20493;-78
2023/06/29 04:40:35;;;;;;;10.80;7.43;;;;;;;;;;5073328;28;21079;-77
2023/06/29 04:43:03;;;;;;;8.13;7.43;;;;;;;;;;5072317;28;20524;-77
2023/06/29 04:45:32;;;;;;;8.37;7.57;;;;;;;;;;5072856;28;20796;-77
2023/06/29 04:48:02;;;;;;;8.50;7.67;;;;;;;;;;5073131;28;20515;-78
2023/06/29 04:50:36;;;;;;;10.40;7.43;;;;;;;;;;5072785;28;20523;-76
2023/06/29 04:53:09;;;;;;;7.70;7.00;;;;;;;;;;5076461;28;20934;-78
2023/06/29 04:55:38;;;;;;;7.53;6.87;;;;;;;;;;5077526;28;20478;-78
2023/06/29 04:58:16;;;;;;;7.30;6.60;;;;;;;;;;5080141;28;20477;-77
2023/06/29 05:07:00;;;;;;;7.80;7.07;;;;;;;;;;4944949;28;20521;-77
2023/06/29 05:09:38;;;;;;;8.40;7.60;;;;;;;;;;4998108;28;20801;-78
2023/06/29 05:24:29;;;;;;;7.30;6.57;;;;;;;;;;4986565;28;20484;-78
2023/06/29 05:26:57;;;;;;;7.33;6.73;;;;;;;;;;5058765;28;20440;-78
2023/06/29 05:29:28;;;;;;;6.40;5.90;;;;;;;;;;5062278;28;20456;-77
2023/06/29 05:32:07;;;;;;;7.10;6.40;;;;;;;;;;5064303;28;20545;-77
2023/06/29 05:34:38;;;;;;;7.07;6.43;;;;;;;;;;5064711;28;21000;-77
2023/06/29 05:37:06;;;;;;;6.83;6.13;;;;;;;;;;5062283;28;20451;-77
2023/06/29 05:39:36;;;;;;;7.27;6.77;;;;;;;;;;5061456;28;20452;-77
2023/06/29 05:42:06;;;;;;;9.00;6.60;;;;;;;;;;5061711;28;20472;-77
2023/06/29 05:44:34;;;;;;;13.30;6.57;;;;;;;;;;5062354;28;20478;-78
2023/06/29 05:47:09;;;;;;;7.50;6.70;;;;;;;;;;5061794;28;20459;-78
2023/06/29 05:49:42;;;;;;;7.53;6.80;;;;;;;;;;5058392;28;20801;-77
2023/06/29 05:52:33;;;;;;;8.43;7.20;;;;;;;;;;5058799;28;20448;-77
2023/06/29 05:55:10;;;;;;;6.87;6.37;;;;;;;;;;5061837;28;20425;-78
2023/06/29 05:58:31;;;;;;;10.10;6.40;;;;;;;;;;5062405;28;20453;-79
2023/06/29 06:01:21;;;;;;;9.40;7.20;;;;;;;;;;5059167;28;20501;-79
2023/06/29 06:04:05;;;;;;;11.37;10.17;;;;;;;;;;5062495;28;20497;-77
2023/06/29 06:18:30;;;;;;;7.97;6.80;;;;;;;;;;4999851;28;20448;-78
2023/06/29 06:21:33;;;;;;;8.13;7.33;;;;;;;;;;5020736;28;20485;-79
2023/06/29 06:27:08;;;;;;;8.80;7.97;;;;;;;;;;5002637;28;20436;-78
2023/06/29 06:29:37;;;;;;;7.43;6.60;;;;;;;;;;5059565;28;20481;-78
2023/06/29 06:32:25;;;;;;;8.57;7.07;;;;;;;;;;5060152;28;20445;-77
2023/06/29 06:34:53;;;;;;;7.70;7.00;;;;;;;;;;5060064;28;20503;-76
2023/06/29 06:37:32;;;;;;;7.10;6.27;;;;;;;;;;5060503;28;20458;-80
2023/06/29 06:40:01;;;;;;;6.83;6.20;;;;;;;;;;5060883;28;20540;-77
2023/06/29 06:42:31;;;;;;;8.83;7.43;;;;;;;;;;5062049;28;20500;-77
2023/06/29 06:45:05;;;;;;;6.43;5.93;;;;;;;;;;5060370;28;20453;-77
2023/06/29 06:47:36;;;;;;;9.27;6.73;;;;;;;;;;5076380;28;20498;-78
2023/06/29 06:50:05;;;;;;;6.83;6.20;;;;;;;;;;5078902;28;20541;-77
2023/06/29 06:52:34;;;;;;;7.93;7.13;;;;;;;;;;5080132;28;20453;-78
2023/06/29 06:55:04;;;;;;;6.60;6.00;;;;;;;;;;5080753;28;20537;-77
2023/06/29 06:57:33;;;;;;;7.20;6.50;;;;;;;;;;5080318;28;20459;-78
2023/06/29 07:00:14;;;;;;;;;;;;;;;;;;;;;
2023/06/29 07:02:46;;;;;;;9.70;7.53;;;;;;;;;;5077113;28;20483;-77
2023/06/29 07:05:16;;;;;;;8.93;6.70;;;;;;;;;;5080128;28;20523;-76
2023/06/29 07:13:29;;;;;;;8.03;6.50;;;;;;;;;;5079473;28;20436;-79
2023/06/29 07:16:28;;;;;;;7.57;6.50;;;;;;;;;;5080413;28;20452;-78
2023/06/29 07:19:21;;;;;;;6.23;5.63;;;;;;;;;;5063752;28;20477;-77
2023/06/29 07:24:59;;;;;;;8.60;5.60;;;;;;;;;;5089386;28;20481;-77
2023/06/29 07:33:30;;;;;;;;;;;;;;;;;;;;;
2023/06/29 07:36:12;;;;;;;6.47;5.27;;;;;;;;;;5083620;28;20955;-78
2023/06/29 07:38:55;;;;;;;8.50;6.80;;;;;;;;;;5085279;28;20439;-79
2023/06/29 07:41:26;;;;;;;6.30;5.47;;;;;;;;;;5082942;28;20534;-78
2023/06/29 07:44:00;;;;;;;7.63;5.77;;;;;;;;;;5080274;28;20466;-77
2023/06/29 07:46:33;;;;;;;6.10;5.50;;;;;;;;;;5097349;28;20444;-77
2023/06/29 07:49:35;;;;;;;5.20;4.67;;;;;;;;;;5098693;28;20451;-76
2023/06/29 07:52:24;;;;;;;10.00;5.80;;;;;;;;;;5077776;28;20521;-76
2023/06/29 07:54:54;;;;;;;6.10;5.50;;;;;;;;;;5111730;28;20435;-77
2023/06/29 07:57:33;;;;;;;8.30;5.30;;;;;;;;;;5110658;28;20447;-76
2023/06/29 08:00:01;;;;;;;6.07;5.20;;;;;;;;;;5109554;28;20565;-78
2023/06/29 08:05:15;;;;;;;5.40;4.90;;;;;;;;;;5066677;28;20448;-79
2023/06/29 08:07:46;;;;;;;8.23;4.97;;;;;;;;;;5076076;28;20506;-78
2023/06/29 08:10:17;;;;;;;11.80;5.10;;;;;;;;;;5086531;28;20464;-76
2023/06/29 08:12:46;;;;;;;5.23;4.80;;;;;;;;;;5082710;28;20502;-77
2023/06/29 08:15:15;;;;;;;7.00;5.00;;;;;;;;;;5084384;28;20445;-78
2023/06/29 08:17:54;;;;;;;5.57;5.03;;;;;;;;;;5082907;28;20478;-78
2023/06/29 08:20:26;;;;;;;5.70;4.57;;;;;;;;;;5081290;28;20871;-76
2023/06/29 08:22:55;;;;;;;4.87;4.30;;;;;;;;;;5077792;28;20477;-78
2023/06/29 08:25:41;;;;;;;5.23;4.73;;;;;;;;;;5077304;28;20436;-77
2023/06/29 08:28:18;;;;;;;8.00;4.70;;;;;;;;;;5065376;28;20449;-78
2023/06/29 08:33:32;;;;;;;6.43;4.30;;;;;;;;;;5066521;28;20981;-78
2023/06/29 08:36:06;;;;;;;6.20;4.53;;;;;;;;;;5076566;28;20544;-78
2023/06/29 08:38:34;;;;;;;4.63;4.23;;;;;;;;;;5076089;28;20527;-78
2023/06/29 08:41:07;;;;;;;4.27;3.80;;;;;;;;;;5078015;28;20481;-78
2023/06/29 08:43:38;;;;;;;4.60;4.20;;;;;;;;;;5075996;28;20476;-77
2023/06/29 08:46:08;;;;;;;21.57;19.67;;;;;;;;;;5076581;28;20449;-77
2023/06/29 08:48:38;;;;;;;4.43;3.50;;;;;;;;;;5076462;28;20528;-78
2023/06/29 08:51:17;;;;;;;7.10;3.67;;;;;;;;;;5077727;28;20453;-78
2023/06/29 08:53:49;;;;;;;8.80;3.20;;;;;;;;;;5077744;28;20583;-77
2023/06/29 08:56:41;;;;;;;3.07;2.80;;;;;;;;;;5077273;28;20699;-77
2023/06/29 08:59:34;;;;;;;3.83;2.90;;;;;;;;;;5078001;28;20441;-77
2023/06/29 09:02:17;;;;;;;3.43;3.10;;;;;;;;;;5075177;28;20483;-77
2023/06/29 09:04:58;;;;;;;3.07;2.70;;;;;;;;;;5078548;28;20473;-77
2023/06/29 09:07:41;;;;;;;4.70;3.10;;;;;;;;;;5077662;28;20446;-78
2023/06/29 09:10:24;;;;;;;5.90;3.50;;;;;;;;;;5076789;28;20433;-78
2023/06/29 09:13:03;;;;;;;3.90;2.87;;;;;;;;;;4993826;28;20883;-77
2023/06/29 09:15:39;;;;;;;4.60;3.33;;;;;;;;;;5068619;28;20448;-78
2023/06/29 09:18:12;;;;;;;7.97;7.17;;;;;;;;;;5077665;28;20460;-78
2023/06/29 09:20:47;;;;;;;3.57;3.27;;;;;;;;;;5072723;28;20442;-78
2023/06/29 09:26:16;;;;;;;4.30;2.50;;;;;;;;;;5061036;28;20433;-77
2023/06/29 09:29:03;;;;;;;2.70;2.50;;;;;;;;;;5066219;28;20454;-78
2023/06/29 09:31:56;;;;;;;11.77;10.80;;;;;;;;;;5065448;28;20458;-77
2023/06/29 09:34:27;;;;;;;3.03;2.70;;;;;;;;;;5067179;28;20461;-79
2023/06/29 09:36:55;;;;;;;3.00;2.53;;;;;;;;;;5069147;28;20476;-78
2023/06/29 09:39:25;;;;;;;3.13;2.60;;;;;;;;;;5064312;28;20491;-79
2023/06/29 09:41:53;;;;;;;3.70;3.40;;;;;;;;;;5063596;28;20501;-77
2023/06/29 09:44:22;;;;;;;5.67;4.67;;;;;;;;;;5063675;28;20523;-78
2023/06/29 09:46:53;;;;;;;4.47;2.97;;;;;;;;;;5062395;28;20457;-78
2023/06/29 09:49:21;;;;;;;2.30;2.20;;;;;;;;;;5059630;28;20453;-78
2023/06/29 09:51:50;;;;;;;2.97;2.67;;;;;;;;;;5061245;28;20492;-77
2023/06/29 09:54:19;;;;;;;2.67;2.47;;;;;;;;;;5061511;28;20469;-76
2023/06/29 09:56:52;;;;;;;4.60;2.53;;;;;;;;;;5061374;28;20557;-76
2023/06/29 09:59:20;;;;;;;2.57;2.10;;;;;;;;;;5057803;28;20959;-77
2023/06/29 10:01:48;;;;;;;4.60;2.40;;;;;;;;;;5063724;28;20473;-77
2023/06/29 10:04:19;;;;;;;2.17;1.97;;;;;;;;;;5079437;28;20526;-77
2023/06/29 10:06:50;;;;;;;3.73;3.00;;;;;;;;;;5078890;28;20474;-77
2023/06/29 10:09:19;;;;;;;3.10;2.80;;;;;;;;;;5077388;28;20509;-77
2023/06/29 10:14:32;;;;;;;2.60;2.43;;;;;;;;;;5076078;28;20527;-77
2023/06/29 10:17:02;;;;;;;2.77;2.50;;;;;;;;;;5081436;28;20449;-78
2023/06/29 10:19:38;;;;;;;3.03;2.73;;;;;;;;;;5081008;28;20445;-78
2023/06/29 10:22:12;;;;;;;3.70;3.40;;;;;;;;;;5081133;28;20484;-76
2023/06/29 10:24:43;;;;;;;2.53;2.33;;;;;;;;;;5078473;28;20429;-77
2023/06/29 10:27:31;;;;;;;3.40;2.27;;;;;;;;;;5080184;28;20480;-77
2023/06/29 10:30:15;;;;;;;3.00;2.70;;;;;;;;;;5081303;28;20451;-75
2023/06/29 10:35:48;;;;;;;3.00;2.80;;;;;;;;;;5018743;28;20448;-77
2023/06/29 10:38:48;;;;;;;2.87;2.67;;;;;;;;;;5019784;28;20455;-77
2023/06/29 10:51:09;;;;;;;14.37;3.50;;;;;;;;;;4974058;28;20840;-78
2023/06/29 10:53:48;;;;;;;3.63;3.00;;;;;;;;;;5014360;28;20471;-80
2023/06/29 10:56:41;;;;;;;3.43;3.13;;;;;;;;;;5018390;28;20438;-79
2023/06/29 10:59:11;;;;;;;6.40;6.00;;;;;;;;;;5026222;28;20433;-78
2023/06/29 11:04:29;;;;;;;3.73;3.37;;;;;;;;;;5074762;28;20468;-78
2023/06/29 11:07:05;;;;;;;2.93;2.63;;;;;;;;;;5079860;28;20445;-77
2023/06/29 11:15:36;;;;;;;3.30;3.10;;;;;;;;;;5028013;28;20468;-76
2023/06/29 11:18:13;;;;;;;4.53;3.03;;;;;;;;;;5083094;28;20998;-78
2023/06/29 11:20:49;;;;;;;5.30;3.30;;;;;;;;;;5087112;28;20483;-78
2023/06/29 11:23:19;;;;;;;3.50;3.10;;;;;;;;;;5086706;28;20792;-77
2023/06/29 11:25:53;;;;;;;6.03;3.90;;;32.90;72.20;;;;;;5088010;28;20445;-79
2023/06/29 11:28:34;;;;;;;4.27;3.60;;;33.10;72.00;;;;;;5083535;28;20483;-79
2023/06/29 11:31:09;;;;;;;3.43;3.13;;;33.20;70.80;;;;;;5081890;28;20483;-77
2023/06/29 11:33:48;;;;;;;4.30;3.90;;;32.90;70.60;;;;;;5082512;28;20460;-76
2023/06/29 11:36:27;;;;;;;3.93;3.60;;;32.40;70.40;;;;;;5086650;28;21021;-77
2023/06/29 11:39:30;;;;;;;4.00;3.70;;;32.50;70.80;;;;;;5085974;28;20482;-78
2023/06/29 11:42:04;;;;;;;3.77;3.47;;;33.10;70.20;;;;;;5083329;28;20519;-77
2023/06/29 11:44:35;;;;;;;4.40;3.60;;;33.40;69.80;;;;;;5080289;28;20477;-76
2023/06/29 11:47:26;;;;;;;4.10;3.70;;;32.90;69.00;;;;;;5081715;28;20445;-79
2023/06/29 11:50:20;;;;;;;5.63;5.13;;;32.10;70.50;;;;;;5081783;28;20454;-75
2023/06/29 11:53:10;;;;;;;5.40;4.10;;;32.00;71.50;;;;;;5080578;28;20475;-78
2023/06/29 11:55:49;;;;;;;4.83;3.70;;;32.80;69.80;;;;;;5080315;28;20448;-78
2023/06/29 11:58:23;;;;;;;3.50;3.20;;;32.40;70.20;;;;;;5080792;28;20508;-78
2023/06/29 12:00:59;;;;;;;4.20;3.90;;;32.90;69.60;;;;;;5080435;28;20644;-79
2023/06/29 12:03:39;;;;;;;3.87;3.57;;;33.10;69.30;;;;;;5084860;28;20484;-76
2023/06/29 12:06:14;;;;;;;4.30;4.00;;;33.10;68.30;;;;;;5083956;28;20453;-77
2023/06/29 12:12:24;;;;;;;4.00;3.57;;;32.90;68.60;;;;;;5058155;28;20428;-78
2023/06/29 12:18:39;;;;;;;5.70;4.57;;;33.30;68.00;;;;;;5039935;28;20425;-75
2023/06/29 12:21:12;;;;;;;5.00;4.50;;;33.30;67.10;;;;;;5042551;28;20443;-77
2023/06/29 12:23:50;;;;;;;4.47;4.07;;;33.30;67.10;;;;;;5036761;28;20486;-78
2023/06/29 12:26:25;;;;;;;4.47;4.07;;;33.30;67.00;;;;;;5044706;28;20506;-76
2023/06/29 12:29:27;;;;;;;7.87;4.13;;;33.20;67.40;;;;;;5050223;28;20470;-78
2023/06/29 12:35:29;;;;;;;5.07;4.60;;;33.20;67.00;;;;;;5085825;28;20478;-78
2023/06/29 12:37:57;;;;;;;4.97;4.37;;;33.00;66.60;;;;;;5082894;28;20445;-77
2023/06/29 12:40:26;;;;;;;6.27;5.10;;;33.10;67.20;;;;;;5092096;28;20445;-79
2023/06/29 12:42:58;;;;;;;4.90;4.50;;;32.80;67.20;;;;;;5091198;28;20528;-79
2023/06/29 12:45:29;;;;;;;5.53;5.03;;;32.70;66.90;;;;;;5092615;28;20433;-79
2023/06/29 12:47:59;;;;;;;7.03;4.00;;;32.60;67.40;;;;;;5093781;28;20448;-79
2023/06/29 12:50:29;;;;;;;3.80;3.50;;;32.10;70.20;;;;;;5094316;28;20444;-79
2023/06/29 12:53:12;;;;;;;4.00;3.40;;;31.50;73.80;;;;;;5093779;28;20460;-78
2023/06/29 12:55:43;;;;;;;3.90;3.60;;;;;;;;;;5094616;28;20451;-78
2023/06/29 12:58:21;;;;;;;4.30;3.60;;;;;;;;;;5095699;28;20471;-78
2023/06/29 13:00:57;;;;;;;4.20;3.80;;;;;;;;;;5100039;28;20444;-79
2023/06/29 13:03:25;;;;;;;5.83;3.90;;;;;;;;;;5089388;28;20483;-78
2023/06/29 13:05:59;;;;;;;4.13;3.83;;;;;;;;;;5088074;28;20475;-77
2023/06/29 13:08:30;;;;;;;6.90;4.17;;;;;;;;;;5088641;28;20452;-79
2023/06/29 13:11:04;;;;;;;5.10;3.73;;;;;;;;;;5088226;28;20472;-77
2023/06/29 13:13:40;;;;;;;4.40;4.00;;;;;;;;;;5093843;28;20495;-79
2023/06/29 13:16:09;;;;;;;3.80;3.43;;;;;;;;;;5091304;28;20452;-78
2023/06/29 13:18:37;;;;;;;4.40;3.83;;;;;;;;;;5079515;28;20466;-76
2023/06/29 13:21:07;;;;;;;4.10;3.70;;;;;;;;;;5078376;28;20448;-78
2023/06/29 13:23:36;;;;;;;7.10;4.13;;;;;;;;;;5079333;28;21008;-78
2023/06/29 13:26:04;;;;;;;4.77;4.03;;;;;;;;;;5080894;28;20449;-76
2023/06/29 13:28:33;;;;;;;4.13;3.83;;;;;;;;;;5079697;28;21012;-76
2023/06/29 13:31:08;;;;;;;5.77;3.80;;;;;;;;;;5082375;28;20444;-76
2023/06/29 13:33:43;;;;;;;6.93;3.93;;;;;;;;;;5084959;28;20470;-78
2023/06/29 13:36:19;;;;;;;5.33;3.30;;;;;;;;;;5084882;28;20459;-79
2023/06/29 13:38:55;;;;;;;4.10;3.70;;;;;;;;;;5089753;28;20476;-78
2023/06/29 13:41:49;;;;;;;4.87;4.47;;;;;;;;;;5090654;28;20458;-76
2023/06/29 13:44:28;;;;;;;4.37;3.97;;;;;;;;;;5089993;28;20928;-77
2023/06/29 13:47:03;;;;;;;4.70;4.40;;;;;;;;;;5090374;28;20460;-80
2023/06/29 13:49:36;;;;;;;3.73;3.30;;;;;;;;;;5089008;28;20444;-77
2023/06/29 13:55:01;;;;;;;4.00;3.67;;;;;;;;;;5083907;28;20433;-79
2023/06/29 13:57:35;;;;;;;3.83;3.53;;;;;;;;;;5086362;28;20514;-76
2023/06/29 14:00:10;;;;;;;5.03;4.53;;;;;;;;;;5088077;28;20444;-78
2023/06/29 14:02:54;;;;;;;6.17;3.90;;;;;;;;;;5087666;28;20464;-77
2023/06/29 14:05:33;;;;;;;4.30;3.97;;;;;;;;;;5086146;28;20510;-78
2023/06/29 14:08:13;;;;;;;4.30;3.93;;;;;;;;;;5084548;28;20433;-78
2023/06/29 14:10:50;;;;;;;4.20;3.90;;;;;;;;;;5081893;28;20497;-76
2023/06/29 14:13:42;;;;;;;3.77;3.57;;;;;;;;;;5078156;28;20461;-76
2023/06/29 14:16:22;;;;;;;4.27;3.50;;;;;;;;;;5080470;28;20523;-75
2023/06/29 14:19:04;;;;;;;;;;;;;;;;;;;;;
2023/06/29 14:21:50;;;;;;;4.27;3.67;;;;;;;;;;5078593;28;20525;-78
2023/06/29 14:24:26;;;;;;;4.23;3.87;;;;;;;;;;5078275;28;20504;-76
2023/06/29 14:26:55;;;;;;;3.97;3.67;;;;;;;;;;5081690;28;20472;-77
2023/06/29 14:29:24;;;;;;;4.57;3.63;;;;;;;;;;5080712;28;20477;-77
2023/06/29 14:32:05;;;;;;;4.33;3.90;;;;;;;;;;5082982;28;20476;-78
2023/06/29 14:34:37;;;;;;;5.67;3.73;;;;;;;;;;5083179;28;20477;-78
2023/06/29 14:37:19;;;;;;;5.13;4.20;;;;;;;;;;5084573;28;20957;-77
2023/06/29 14:39:49;;;;;;;4.57;4.07;;;;;;;;;;5084018;28;20920;-78
2023/06/29 14:42:20;;;;;;;7.83;5.20;;;;;;;;;;5080404;28;20528;-77
2023/06/29 14:44:55;;;;;;;5.90;4.97;;;;;;;;;;5078748;28;20473;-77
2023/06/29 14:47:30;;;;;;;5.93;4.40;;;;;;;;;;5084884;28;20459;-78
2023/06/29 14:50:02;;;;;;;5.20;4.03;;;;;;;;;;5079741;28;20452;-77
2023/06/29 14:52:34;;;;;;;4.57;4.17;;;;;;;;;;5079380;28;20475;-76
2023/06/29 14:55:16;;;;;;;8.73;4.43;;;;;;;;;;5086319;28;20449;-79
2023/06/29 14:57:45;;;;;;;5.20;4.17;;;;;;;;;;5086653;28;20476;-78
2023/06/29 15:00:15;;;;;;;4.50;4.07;;;;;;;;;;5078356;28;20564;-76
2023/06/29 15:02:52;;;;;;;4.83;4.33;;;;;;;;;;5079678;28;20457;-78
2023/06/29 15:05:21;;;;;;;6.13;4.77;;;;;;;;;;5079827;28;20468;-76
2023/06/29 15:07:49;;;;;;;4.90;4.23;;;;;;;;;;5078117;28;20507;-77
2023/06/29 15:10:19;;;;;;;4.87;4.47;;;;;;;;;;5076786;28;20441;-77
2023/06/29 15:12:50;;;;;;;4.30;4.00;;;;;;;;;;5080145;28;20492;-76
2023/06/29 15:15:18;;;;;;;4.50;4.07;;;;;;;;;;5078353;28;20966;-75
2023/06/29 15:17:47;;;;;;;6.00;4.20;;;;;;;;;;5075867;28;20452;-77
2023/06/29 15:20:15;;;;;;;6.73;4.10;;;;;;;;;;5079118;28;20456;-76
2023/06/29 15:22:53;;;;;;;4.17;3.97;;;;;;;;;;5079636;28;20457;-75
2023/06/29 15:25:42;;;;;;;6.60;4.27;;;;;;;;;;5078148;28;20449;-77
2023/06/29 15:28:28;;;;;;;4.40;4.00;;;;;;;;;;5084615;28;20456;-78
2023/06/29 15:30:56;;;;;;;4.40;4.10;;;;;;;;;;5061338;28;20457;-77
2023/06/29 15:33:27;;;;;;;3.90;3.57;;;;;;;;;;5070712;28;20469;-79
2023/06/29 15:45:26;;;;;;;4.67;4.20;;;;;;;;;;5067625;28;20514;-78
2023/06/29 15:48:05;;;;;;;5.50;5.00;;;;;;;;;;5048186;28;20449;-78
2023/06/29 15:50:38;;;;;;;5.87;5.37;;;;;;;;;;5089404;28;20463;-76
2023/06/29 15:53:05;;;;;;;8.80;5.73;;;;;;;;;;5084875;28;20512;-76
2023/06/29 15:55:33;;;;;;;7.43;5.00;;;;;;;;;;5084206;28;20424;-77
2023/06/29 15:58:02;;;;;;;5.23;4.73;;;;;;;;;;5084898;28;20468;-77
2023/06/29 16:00:30;;;;;;;4.63;4.33;;;;;;;;;;5086117;28;20447;-75
2023/06/29 16:02:57;;;;;;;5.10;3.80;;;;;;;;;;5084157;28;20540;-76
2023/06/29 16:05:25;;;;;;;4.53;4.20;;;;;;;;;;5079849;28;20479;-78
2023/06/29 16:07:53;;;;;;;7.30;4.60;;;;;;;;;;5078755;28;20457;-79
2023/06/29 16:10:21;;;;;;;4.40;4.00;;;;;;;;;;5077696;28;20815;-77
2023/06/29 16:12:48;;;;;;;5.30;4.30;;;;;;;;;;5078524;28;20472;-77
2023/06/29 16:15:18;;;;;;;4.60;3.50;;;;;;;;;;5077661;28;20476;-78
2023/06/29 16:17:45;;;;;;;4.23;3.80;;;;;;;;;;5083032;28;20467;-76
2023/06/29 16:20:17;;;;;;;5.13;4.00;;;;;;;;;;5086596;28;20449;-77
2023/06/29 16:22:45;;;;;;;5.30;3.80;;;;;;;;;;5082924;28;20496;-78
2023/06/29 16:25:15;;;;;;;4.70;4.00;;;;;;;;;;5081024;28;20473;-77
2023/06/29 16:27:47;;;;;;;5.73;4.00;;;;;;;;;;5089116;28;20409;-79
2023/06/29 16:30:22;;;;;;;4.20;3.80;;;;;;;;;;5088677;28;20456;-78
2023/06/29 16:32:49;;;;;;;5.70;3.90;;;;;;;;;;5081532;28;21133;-78
2023/06/29 16:35:17;;;;;;;6.00;4.20;;;;;;;;;;5083215;28;20520;-77
2023/06/29 16:37:46;;;;;;;4.63;3.70;;;;;;;;;;5090431;28;20405;-79
2023/06/29 16:40:16;;;;;;;4.50;3.77;;;;;;;;;;5089994;28;20437;-81
2023/06/29 16:42:44;;;;;;;4.20;3.80;;;;;;;;;;5093669;28;20441;-79
2023/06/29 16:45:15;;;;;;;4.87;4.30;;;;;;;;;;5094976;28;20491;-76
2023/06/29 16:47:46;;;;;;;3.77;3.40;;;;;;;;;;5093132;28;20414;-78
2023/06/29 16:50:21;;;;;;;5.73;3.70;;;;;;;;;;5092393;28;20445;-79
2023/06/29 16:52:48;;;;;;;6.10;4.03;;;;;;;;;;5093159;28;20463;-77
2023/06/29 16:55:16;;;;;;;4.27;3.87;;;;;;;;;;5090858;28;20434;-77
2023/06/29 16:57:47;;;;;;;7.43;4.20;;;;;;;;;;5090618;28;20480;-77
2023/06/29 17:00:15;;;;;;;5.77;4.07;;;;;;;;;;5088872;28;20455;-79
2023/06/29 17:02:44;;;;;;;5.07;3.63;;;;;;;;;;5087677;28;20465;-78
2023/06/29 17:05:12;;;;;;;4.47;4.07;;;;;;;;;;5087486;28;20487;-78
2023/06/29 17:07:42;;;;;;;3.77;3.50;;;;;;;;;;5088014;28;20445;-78
2023/06/29 17:10:10;;;;;;;4.37;3.77;;;;;;;;;;5088222;28;20445;-78
2023/06/29 17:12:39;;;;;;;4.40;4.00;;;;;;;;;;5087476;28;20453;-78
2023/06/29 17:15:07;;;;;;;4.90;3.80;;;;;;;;;;5085918;28;20484;-78
2023/06/29 17:17:43;;;;;;;4.60;4.20;;;;;;;;;;5091652;28;20516;-78
2023/06/29 17:20:13;;;;;;;5.30;3.97;;;;;;;;;;5071555;28;20509;-77
2023/06/29 17:22:41;;;;;;;4.20;3.90;;;;;;;;;;5069983;28;20469;-79
2023/06/29 17:25:09;;;;;;;7.80;4.30;;;;;;;;;;5069183;28;20469;-78
2023/06/29 17:27:37;;;;;;;6.87;4.53;;;;;;;;;;5071625;28;20442;-78
2023/06/29 17:30:06;;;;;;;4.93;4.10;;;;;;;;;;5073957;28;20516;-79
2023/06/29 17:32:41;;;;;;;4.60;4.20;;;;;;;;;;5062368;28;20500;-79
2023/06/29 17:35:11;;;;;;;4.43;4.03;;;;;;;;;;5066232;28;20458;-79